createdAt,value
2022-10-05T00:01:17.298Z,16.40
2022-10-05T00:03:45.182Z,15.00
2022-10-05T00:06:14.060Z,13.83
2022-10-05T00:08:44.346Z,14.50
2022-10-05T00:11:14.592Z,14.93
2022-10-05T00:13:42.927Z,13.83
2022-10-05T00:16:17.014Z,14.20
2022-10-05T00:18:47.977Z,14.57
2022-10-05T00:21:21.881Z,14.93
2022-10-05T00:23:51.956Z,14.53
2022-10-05T00:26:22.746Z,15.07
2022-10-05T00:28:50.670Z,14.77
2022-10-05T00:31:21.677Z,14.03
2022-10-05T00:33:50.072Z,15.90
2022-10-05T00:36:18.407Z,17.03
2022-10-05T00:38:46.687Z,15.57
2022-10-05T00:41:22.588Z,16.00
2022-10-05T00:44:12.612Z,15.60
2022-10-05T00:46:54.930Z,13.00
2022-10-05T00:49:39.433Z,14.23
2022-10-05T00:52:20.292Z,16.37
2022-10-05T00:54:54.347Z,14.83
2022-10-05T00:57:35.092Z,15.03
2022-10-05T01:00:07.603Z,15.17
2022-10-05T01:02:49.327Z,15.73
2022-10-05T01:05:30.720Z,13.07
2022-10-05T01:08:05.131Z,11.33
2022-10-05T01:10:39.954Z,8.43
2022-10-05T01:13:19.155Z,8.10
2022-10-05T01:15:54.383Z,8.13
2022-10-05T01:18:28.922Z,7.80
2022-10-05T01:21:04.665Z,7.73
2022-10-05T01:24:05.212Z,7.70
2022-10-05T01:26:59.691Z,9.30
2022-10-05T01:29:34.212Z,9.10
2022-10-05T01:32:11.172Z,9.47
2022-10-05T01:34:43.348Z,9.80
2022-10-05T01:37:20.064Z,9.43
2022-10-05T01:39:55.000Z,10.20
2022-10-05T01:42:33.314Z,10.17
2022-10-05T01:45:09.645Z,10.17
2022-10-05T01:47:44.509Z,10.03
2022-10-05T01:50:23.839Z,10.57
2022-10-05T01:53:01.412Z,10.80
2022-10-05T01:55:36.081Z,11.43
2022-10-05T01:58:17.021Z,11.07
2022-10-05T02:00:58.188Z,11.53
2022-10-05T02:03:31.127Z,10.97
2022-10-05T02:06:04.492Z,10.30
2022-10-05T02:08:35.810Z,11.90
2022-10-05T02:11:07.733Z,10.80
2022-10-05T02:13:40.356Z,10.53
2022-10-05T02:16:15.618Z,10.20
2022-10-05T02:18:50.980Z,11.00
2022-10-05T02:21:20.609Z,10.70
2022-10-05T02:23:52.603Z,10.60
2022-10-05T02:26:20.593Z,10.33
2022-10-05T02:28:53.542Z,11.00
2022-10-05T02:31:27.168Z,11.23
2022-10-05T02:34:22.505Z,11.93
2022-10-05T02:36:57.952Z,11.53
2022-10-05T02:39:35.808Z,11.80
2022-10-05T02:42:13.743Z,12.33
2022-10-05T02:44:52.759Z,12.63
2022-10-05T02:47:33.464Z,12.77
2022-10-05T02:50:09.441Z,11.40
2022-10-05T02:52:46.171Z,12.07
2022-10-05T02:55:19.575Z,11.17
2022-10-05T02:57:55.350Z,11.77
2022-10-05T03:00:25.631Z,12.23
2022-10-05T03:03:02.265Z,10.47
2022-10-05T03:05:36.512Z,11.90
2022-10-05T03:08:10.544Z,11.93
2022-10-05T03:10:44.425Z,12.10
2022-10-05T03:13:24.273Z,11.87
2022-10-05T03:16:07.305Z,11.33
2022-10-05T03:18:49.403Z,10.83
2022-10-05T03:21:31.207Z,10.57
2022-10-05T03:24:21.830Z,10.13
2022-10-05T03:27:01.752Z,10.13
2022-10-05T03:29:37.462Z,10.73
2022-10-05T03:32:18.582Z,9.17
2022-10-05T03:34:54.904Z,8.23
2022-10-05T03:37:30.347Z,9.43
2022-10-05T03:40:05.884Z,8.67
2022-10-05T03:42:39.979Z,9.07
2022-10-05T03:45:20.348Z,8.87
2022-10-05T03:48:01.023Z,9.63
2022-10-05T03:50:43.374Z,9.33
2022-10-05T03:53:19.703Z,9.73
2022-10-05T03:55:53.768Z,9.30
2022-10-05T03:58:25.070Z,10.17
2022-10-05T04:00:59.473Z,10.37
2022-10-05T04:03:34.055Z,11.47
2022-10-05T04:06:11.256Z,11.20
2022-10-05T04:08:47.910Z,11.50
2022-10-05T04:11:22.349Z,11.57
2022-10-05T04:13:54.927Z,12.53
2022-10-05T04:16:28.863Z,13.30
2022-10-05T04:19:02.449Z,13.80
2022-10-05T04:21:36.275Z,12.43
2022-10-05T04:24:11.268Z,13.10
2022-10-05T04:26:45.020Z,11.60
2022-10-05T04:29:20.424Z,12.70
2022-10-05T04:31:58.296Z,12.13
2022-10-05T04:34:45.592Z,12.57
2022-10-05T04:37:21.444Z,13.00
2022-10-05T04:40:01.996Z,13.57
2022-10-05T04:42:36.383Z,11.87
2022-10-05T04:45:13.143Z,12.53
2022-10-05T04:48:06.225Z,12.27
2022-10-05T04:50:49.148Z,13.20
2022-10-05T04:53:26.700Z,12.63
2022-10-05T04:56:00.008Z,12.40
2022-10-05T04:58:48.912Z,14.47
2022-10-05T05:01:34.657Z,12.67
2022-10-05T05:04:16.223Z,10.10
2022-10-05T05:06:56.508Z,10.37
2022-10-05T05:09:47.506Z,10.13
2022-10-05T05:12:25.182Z,8.63
2022-10-05T05:15:18.066Z,8.60
2022-10-05T05:18:02.199Z,7.83
2022-10-05T05:20:44.487Z,7.07
2022-10-05T05:23:22.195Z,7.07
2022-10-05T05:26:01.696Z,8.50
2022-10-05T05:28:36.563Z,7.30
2022-10-05T05:31:11.430Z,7.20
2022-10-05T05:33:55.241Z,7.73
2022-10-05T05:36:43.147Z,9.37
2022-10-05T05:39:29.464Z,8.37
2022-10-05T05:42:08.014Z,8.03
2022-10-05T05:44:43.820Z,8.47
2022-10-05T05:47:21.643Z,8.73
2022-10-05T05:50:07.700Z,9.10
2022-10-05T05:52:42.825Z,9.80
2022-10-05T05:55:20.271Z,8.63
2022-10-05T05:57:54.353Z,8.03
2022-10-05T06:00:26.115Z,6.80
2022-10-05T06:02:58.426Z,6.43
2022-10-05T06:05:32.134Z,6.90
2022-10-05T06:08:04.290Z,6.63
2022-10-05T06:10:41.429Z,6.93
2022-10-05T06:13:16.650Z,7.10
2022-10-05T06:15:49.234Z,7.60
2022-10-05T06:18:20.582Z,7.27
2022-10-05T06:20:55.996Z,7.27
2022-10-05T06:23:29.027Z,7.80
2022-10-05T06:26:19.063Z,7.40
2022-10-05T06:28:53.658Z,8.43
2022-10-05T06:31:36.711Z,6.30
2022-10-05T06:34:18.411Z,6.53
2022-10-05T06:36:51.998Z,6.82
2022-10-05T06:39:37.847Z,6.55
2022-10-05T06:42:22.119Z,6.72
2022-10-05T06:45:01.541Z,9.52
2022-10-05T06:47:38.773Z,8.10
2022-10-05T06:50:16.537Z,9.35
2022-10-05T06:52:59.188Z,9.27
2022-10-05T06:55:38.895Z,7.85
2022-10-05T06:58:22.069Z,7.47
2022-10-05T07:00:55.267Z,8.40
2022-10-05T07:03:34.526Z,8.10
2022-10-05T07:06:11.757Z,8.40
2022-10-05T07:08:54.948Z,10.23
2022-10-05T07:11:38.286Z,11.05
2022-10-05T07:14:29.188Z,9.27
2022-10-05T07:17:09.989Z,9.32
2022-10-05T07:19:44.704Z,9.02
2022-10-05T07:22:37.437Z,8.57
2022-10-05T07:25:14.003Z,9.02
2022-10-05T07:27:51.799Z,9.00
2022-10-05T07:30:20.436Z,9.70
2022-10-05T07:33:00.317Z,10.27
2022-10-05T07:35:58.530Z,11.30
2022-10-05T07:38:33.033Z,11.20
2022-10-05T07:41:07.522Z,14.35
2022-10-05T07:44:02.804Z,11.82
2022-10-05T07:46:42.591Z,11.30
2022-10-05T07:49:18.944Z,10.65
2022-10-05T07:51:50.169Z,11.80
2022-10-05T07:54:24.555Z,10.88
2022-10-05T07:56:59.786Z,10.25
2022-10-05T07:59:33.665Z,10.35
2022-10-05T08:02:13.336Z,10.15
2022-10-05T08:04:51.827Z,11.68
2022-10-05T08:07:20.283Z,11.23
2022-10-05T08:09:55.324Z,10.98
2022-10-05T08:12:40.596Z,10.45
2022-10-05T08:15:15.644Z,11.23
2022-10-05T08:17:51.597Z,8.88
2022-10-05T08:20:41.316Z,13.82
2022-10-05T08:23:25.191Z,8.90
2022-10-05T08:26:07.266Z,8.38
2022-10-05T08:28:39.142Z,7.28
2022-10-05T08:31:17.863Z,9.00
2022-10-05T08:33:55.898Z,9.40
2022-10-05T08:36:53.723Z,10.23
2022-10-05T08:39:24.848Z,10.63
2022-10-05T08:42:43.141Z,7.65
2022-10-05T08:45:40.657Z,7.38
2022-10-05T08:48:26.732Z,5.28
2022-10-05T08:51:29.096Z,6.75
2022-10-05T08:54:23.895Z,5.53
2022-10-05T08:57:02.031Z,6.00
2022-10-05T08:59:54.555Z,8.80
2022-10-05T09:02:33.003Z,3.03
2022-10-05T09:05:22.880Z,3.15
2022-10-05T09:08:20.902Z,3.58
2022-10-05T09:11:06.989Z,4.70
2022-10-05T09:13:53.900Z,3.58
2022-10-05T09:16:45.684Z,5.10
2022-10-05T09:20:10.390Z,4.30
2022-10-05T09:23:02.773Z,4.60
2022-10-05T09:25:43.380Z,4.00
2022-10-05T09:28:26.580Z,4.07
2022-10-05T09:31:17.509Z,5.05
2022-10-05T09:34:16.859Z,5.25
2022-10-05T09:37:20.134Z,4.20
2022-10-05T09:40:40.571Z,7.05
2022-10-05T09:43:59.169Z,3.55
2022-10-05T09:46:45.287Z,5.22
2022-10-05T09:49:30.872Z,7.07
2022-10-05T09:52:20.656Z,3.33
2022-10-05T09:55:31.079Z,3.78
2022-10-05T09:58:20.384Z,3.10
2022-10-05T10:01:09.620Z,2.88
2022-10-05T10:04:15.483Z,4.70
2022-10-05T10:07:31.472Z,2.63
2022-10-05T10:10:22.776Z,2.60
2022-10-05T10:13:12.751Z,2.50
2022-10-05T10:16:16.571Z,2.17
2022-10-05T10:19:01.537Z,2.67
2022-10-05T10:21:55.927Z,2.42
2022-10-05T10:24:43.677Z,2.40
2022-10-05T10:27:30.152Z,3.35
2022-10-05T10:30:36.273Z,2.28
2022-10-05T10:33:34.076Z,2.97
2022-10-05T10:36:07.911Z,2.70
2022-10-05T10:38:54.849Z,2.80
2022-10-05T10:41:47.287Z,2.33
2022-10-05T10:45:00.882Z,2.30
2022-10-05T10:48:02.041Z,2.60
2022-10-05T10:50:59.417Z,2.20
2022-10-05T10:54:06.153Z,2.33
2022-10-05T10:56:57.056Z,2.60
2022-10-05T11:00:01.603Z,2.50
2022-10-05T11:03:00.390Z,2.00
2022-10-05T11:05:48.846Z,5.60
2022-10-05T11:08:46.500Z,2.10
2022-10-05T11:11:27.165Z,2.53
2022-10-05T11:14:22.622Z,3.80
2022-10-05T11:17:23.162Z,3.72
2022-10-05T11:20:18.619Z,2.85
2022-10-05T11:22:59.901Z,1.88
2022-10-05T11:25:50.072Z,2.00
2022-10-05T11:28:39.095Z,4.82
2022-10-05T11:31:45.213Z,2.00
2022-10-05T11:34:49.969Z,2.53
2022-10-05T11:37:36.253Z,2.50
2022-10-05T11:40:33.259Z,3.60
2022-10-05T11:43:35.172Z,3.08
2022-10-05T11:46:09.364Z,2.17
2022-10-05T11:48:53.352Z,2.47
2022-10-05T11:51:39.076Z,2.10
2022-10-05T11:54:27.193Z,2.10
2022-10-05T11:57:01.949Z,1.90
2022-10-05T11:59:39.458Z,2.85
2022-10-05T12:02:43.945Z,2.08
2022-10-05T12:05:21.201Z,2.80
2022-10-05T12:08:03.881Z,2.83
2022-10-05T12:10:37.813Z,3.75
2022-10-05T12:13:22.109Z,3.00
2022-10-05T12:15:55.562Z,2.00
2022-10-05T12:18:42.079Z,2.72
2022-10-05T12:21:17.413Z,2.70
2022-10-05T12:23:51.527Z,4.25
2022-10-05T12:26:25.812Z,3.03
2022-10-05T12:28:59.188Z,4.55
2022-10-05T12:31:38.313Z,3.30
2022-10-05T12:34:18.645Z,2.92
2022-10-05T12:37:04.156Z,2.50
2022-10-05T12:39:44.654Z,3.22
2022-10-05T12:42:26.440Z,3.05
2022-10-05T12:45:16.746Z,2.60
2022-10-05T12:48:01.604Z,4.32
2022-10-05T12:50:33.901Z,2.80
2022-10-05T12:53:15.399Z,2.70
2022-10-05T12:55:50.285Z,2.28
2022-10-05T12:58:28.158Z,2.55
2022-10-05T13:01:17.955Z,2.15
2022-10-05T13:03:53.743Z,2.15
2022-10-05T13:06:32.266Z,2.10
2022-10-05T13:09:10.175Z,2.05
2022-10-05T13:11:45.916Z,2.15
2022-10-05T13:14:35.383Z,2.15
2022-10-05T13:17:14.985Z,2.00
2022-10-05T13:19:47.274Z,2.10
2022-10-05T13:22:28.515Z,2.30
2022-10-05T13:25:09.426Z,2.20
2022-10-05T13:27:41.947Z,2.05
2022-10-05T13:30:15.113Z,2.15
2022-10-05T13:32:48.055Z,2.03
2022-10-05T13:35:36.285Z,1.83
2022-10-05T13:38:17.108Z,2.17
2022-10-05T13:40:49.756Z,2.13
2022-10-05T13:43:26.181Z,2.08
2022-10-05T13:45:57.130Z,2.05
2022-10-05T13:48:47.503Z,2.33
2022-10-05T13:51:23.132Z,1.90
2022-10-05T13:53:57.391Z,2.00
2022-10-05T13:56:31.042Z,1.80
2022-10-05T13:59:11.931Z,2.00
2022-10-05T14:01:43.143Z,1.60
2022-10-05T14:04:19.107Z,1.77
2022-10-05T14:06:47.702Z,2.37
2022-10-05T14:09:29.805Z,1.60
2022-10-05T14:12:15.644Z,2.20
2022-10-05T14:14:49.228Z,2.70
2022-10-05T14:17:32.820Z,3.33
2022-10-05T14:20:04.176Z,3.03
2022-10-05T14:22:42.725Z,2.83
2022-10-05T14:25:17.163Z,3.20
2022-10-05T14:27:52.163Z,4.17
2022-10-05T14:30:23.664Z,3.00
2022-10-05T14:32:56.123Z,3.87
2022-10-05T14:35:29.294Z,3.70
2022-10-05T14:38:00.213Z,2.20
2022-10-05T14:40:33.742Z,2.20
2022-10-05T14:43:18.161Z,2.30
2022-10-05T14:45:55.312Z,2.07
2022-10-05T14:48:23.465Z,6.43
2022-10-05T14:50:58.028Z,3.30
2022-10-05T14:53:26.862Z,3.10
2022-10-05T14:56:29.533Z,2.10
2022-10-05T14:59:30.756Z,1.70
2022-10-05T15:02:15.747Z,4.23
2022-10-05T15:04:50.053Z,2.23
2022-10-05T15:07:26.303Z,2.60
2022-10-05T15:10:29.529Z,2.80
2022-10-05T15:13:10.625Z,2.43
2022-10-05T15:15:45.829Z,2.90
2022-10-05T15:18:21.642Z,3.60
2022-10-05T15:20:58.565Z,2.43
2022-10-05T15:23:35.854Z,2.73
2022-10-05T15:26:21.648Z,2.47
2022-10-05T15:28:57.162Z,3.23
2022-10-05T15:31:35.999Z,2.50
2022-10-05T15:34:10.310Z,2.53
2022-10-05T15:36:44.381Z,3.03
2022-10-05T15:39:27.016Z,3.70
2022-10-05T15:42:00.783Z,2.87
2022-10-05T15:44:38.521Z,3.20
2022-10-05T15:47:08.772Z,2.50
2022-10-05T15:49:45.564Z,3.00
2022-10-05T15:52:23.931Z,2.90
2022-10-05T15:55:25.860Z,3.40
2022-10-05T15:58:08.443Z,3.60
2022-10-05T16:00:42.583Z,4.67
2022-10-05T16:03:19.275Z,6.50
2022-10-05T16:06:07.635Z,3.60
2022-10-05T16:08:51.496Z,4.50
2022-10-05T16:11:31.204Z,5.00
2022-10-05T16:14:09.892Z,3.53
2022-10-05T16:16:46.522Z,3.87
2022-10-05T16:19:21.599Z,3.87
2022-10-05T16:22:02.090Z,2.90
2022-10-05T16:24:51.638Z,2.87
2022-10-05T16:27:28.935Z,2.50
2022-10-05T16:30:02.807Z,2.67
2022-10-05T16:32:38.378Z,4.77
2022-10-05T16:35:17.512Z,5.53
2022-10-05T16:37:56.213Z,5.20
2022-10-05T16:40:29.929Z,5.47
2022-10-05T16:43:10.760Z,7.37
2022-10-05T16:46:00.026Z,7.70
2022-10-05T16:48:30.703Z,5.93
2022-10-05T16:51:17.896Z,4.63
2022-10-05T16:53:51.081Z,4.13
2022-10-05T16:56:25.143Z,4.93
2022-10-05T16:59:08.171Z,6.47
2022-10-05T17:01:48.489Z,4.20
2022-10-05T17:04:25.956Z,5.17
2022-10-05T17:07:17.887Z,5.10
2022-10-05T17:10:03.173Z,5.20
2022-10-05T17:12:51.140Z,4.03
2022-10-05T17:15:33.732Z,4.70
2022-10-05T17:18:23.536Z,4.10
2022-10-05T17:20:59.104Z,4.90
2022-10-05T17:23:33.195Z,4.97
2022-10-05T17:26:12.819Z,5.83
2022-10-05T17:28:45.408Z,6.90
2022-10-05T17:31:18.522Z,6.53
2022-10-05T17:34:11.458Z,5.97
2022-10-05T17:36:45.115Z,8.50
2022-10-05T17:39:17.080Z,7.77
2022-10-05T17:41:45.515Z,7.97
2022-10-05T17:44:26.229Z,8.60
2022-10-05T17:46:57.614Z,9.17
2022-10-05T17:50:08.900Z,12.13
2022-10-05T17:52:56.801Z,11.17
2022-10-05T17:55:44.093Z,11.67
2022-10-05T17:59:00.801Z,11.00
2022-10-05T18:01:30.614Z,9.77
2022-10-05T18:04:42.405Z,9.67
2022-10-05T18:07:20.795Z,10.47
2022-10-05T18:09:56.285Z,10.93
2022-10-05T18:12:40.806Z,12.77
2022-10-05T18:15:45.200Z,12.00
2022-10-05T18:18:38.659Z,11.17
2022-10-05T18:21:18.445Z,10.30
2022-10-05T18:24:01.274Z,10.30
2022-10-05T18:26:38.754Z,11.20
2022-10-05T18:29:43.850Z,9.53
2022-10-05T18:32:24.838Z,7.97
2022-10-05T18:35:02.310Z,8.27
2022-10-05T18:37:43.624Z,8.60
2022-10-05T18:40:31.161Z,9.73
2022-10-05T18:43:07.523Z,11.90
2022-10-05T18:45:42.897Z,10.43
2022-10-05T18:48:25.200Z,10.30
2022-10-05T18:50:58.701Z,12.07
2022-10-05T18:53:40.446Z,30.33
2022-10-05T18:56:20.733Z,13.83
2022-10-05T18:59:00.337Z,40.93
2022-10-05T19:01:52.248Z,14.27
2022-10-05T19:04:31.666Z,12.87
2022-10-05T19:07:12.956Z,12.47
2022-10-05T19:09:56.407Z,12.00
2022-10-05T19:12:38.092Z,11.50
2022-10-05T19:15:20.387Z,10.60
2022-10-05T19:18:11.667Z,16.40
2022-10-05T19:20:46.099Z,10.77
2022-10-05T19:23:27.752Z,11.47
2022-10-05T19:26:03.788Z,11.63
2022-10-05T19:28:38.146Z,10.10
2022-10-05T19:31:24.259Z,10.27
2022-10-05T19:34:07.832Z,10.60
2022-10-05T19:36:52.201Z,11.00
2022-10-05T19:39:29.727Z,12.20
2022-10-05T19:42:08.288Z,12.43
2022-10-05T19:44:49.102Z,14.17
2022-10-05T19:47:25.045Z,14.03
2022-10-05T19:50:00.429Z,13.87
2022-10-05T19:52:39.568Z,16.00
2022-10-05T19:55:14.854Z,16.40
2022-10-05T19:57:49.752Z,17.13
2022-10-05T20:00:24.652Z,17.37
2022-10-05T20:02:53.313Z,17.33
2022-10-05T20:05:21.401Z,14.43
2022-10-05T20:07:50.626Z,13.30
2022-10-05T20:10:29.532Z,13.13
2022-10-05T20:12:59.055Z,12.47
2022-10-05T20:15:46.219Z,10.80
2022-10-05T20:18:54.213Z,10.87
2022-10-05T20:21:43.584Z,11.57
2022-10-05T20:24:15.573Z,12.67
2022-10-05T20:27:04.325Z,11.93
2022-10-05T20:29:36.558Z,11.90
2022-10-05T20:32:08.299Z,16.47
2022-10-05T20:34:37.444Z,18.03
2022-10-05T20:37:05.372Z,20.23
2022-10-05T20:39:34.612Z,27.37
2022-10-05T20:42:02.436Z,27.50
2022-10-05T20:44:30.443Z,23.80
2022-10-05T20:46:58.675Z,20.07
2022-10-05T20:49:27.131Z,18.53
2022-10-05T20:51:56.620Z,15.30
2022-10-05T20:54:25.334Z,14.27
2022-10-05T20:56:55.676Z,13.93
2022-10-05T20:59:24.444Z,15.60
2022-10-05T21:01:52.876Z,14.13
2022-10-05T21:04:23.508Z,14.50
2022-10-05T21:06:51.802Z,15.07
2022-10-05T21:09:21.412Z,14.57
2022-10-05T21:11:52.877Z,13.50
2022-10-05T21:14:22.916Z,13.00
2022-10-05T21:16:50.942Z,12.47
2022-10-05T21:19:18.883Z,12.40
2022-10-05T21:21:47.459Z,12.20
2022-10-05T21:24:17.334Z,12.33
2022-10-05T21:26:45.782Z,12.93
2022-10-05T21:29:13.907Z,12.40
2022-10-05T21:31:43.159Z,11.73
2022-10-05T21:34:11.024Z,11.40
2022-10-05T21:36:38.853Z,10.93
2022-10-05T21:39:06.675Z,10.00
2022-10-05T21:41:34.551Z,10.00
2022-10-05T21:44:02.424Z,8.97
2022-10-05T21:46:31.601Z,10.23
2022-10-05T21:49:00.767Z,10.13
2022-10-05T21:51:28.755Z,9.33
2022-10-05T21:54:01.723Z,9.47
2022-10-05T21:56:32.226Z,9.77
2022-10-05T21:59:02.003Z,9.43
2022-10-05T22:01:29.840Z,9.00
2022-10-05T22:03:57.996Z,9.33
2022-10-05T22:06:27.184Z,9.53
2022-10-05T22:08:55.075Z,8.77
2022-10-05T22:11:23.103Z,9.33
2022-10-05T22:13:53.485Z,9.30
2022-10-05T22:16:24.666Z,8.90
2022-10-05T22:18:53.643Z,9.00
2022-10-05T22:21:22.148Z,11.40
2022-10-05T22:23:51.367Z,10.00
2022-10-05T22:26:22.062Z,9.50
2022-10-05T22:28:52.470Z,11.00
2022-10-05T22:31:20.517Z,11.13
2022-10-05T22:33:48.367Z,11.93
2022-10-05T22:36:17.065Z,11.57
2022-10-05T22:38:46.608Z,11.47
2022-10-05T22:41:18.262Z,10.97
2022-10-05T22:43:48.761Z,10.63
2022-10-05T22:46:17.143Z,11.37
2022-10-05T22:48:45.032Z,11.33
2022-10-05T22:51:13.131Z,10.90
2022-10-05T22:53:40.951Z,11.87
2022-10-05T22:56:10.612Z,11.77
2022-10-05T22:58:40.652Z,10.10
2022-10-05T23:01:10.197Z,10.20
2022-10-05T23:03:38.153Z,8.77
2022-10-05T23:06:08.298Z,8.00
2022-10-05T23:08:37.691Z,7.53
2022-10-05T23:11:06.922Z,7.20
2022-10-05T23:13:35.004Z,7.27
2022-10-05T23:16:08.968Z,7.60
2022-10-05T23:18:36.845Z,7.53
2022-10-05T23:21:07.363Z,7.40
2022-10-05T23:23:37.042Z,7.70
2022-10-05T23:26:05.944Z,8.03
2022-10-05T23:28:34.323Z,7.63
2022-10-05T23:31:04.132Z,7.97
2022-10-05T23:33:33.743Z,8.23
2022-10-05T23:36:02.641Z,8.53
2022-10-05T23:38:31.003Z,7.83
2022-10-05T23:40:59.845Z,8.20
2022-10-05T23:43:28.509Z,7.83
2022-10-05T23:45:56.824Z,7.37
2022-10-05T23:48:25.159Z,7.40
2022-10-05T23:50:55.719Z,7.20
2022-10-05T23:53:23.814Z,7.33
2022-10-05T23:55:52.336Z,7.30
2022-10-05T23:58:20.941Z,7.60
